Time;durP1;ratioP1;P1;durP2;ratioP2;P2;SDS_P1;SDS_P2;PMS_P1;PMS_P2;Temp;Humidity;BMP_temperature;BMP_pressure;BME280_temperature;BME280_humidity;BME280_pressure;Samples;Min_cycle;Max_cycle;Signal;HPM_P1;HPM_P2
2024/03/31 00:01:14;;;;;;;22.02;18.20;;;;;;;9.88;100.00;99854.44;5078173;28;20040;-71
2024/03/31 00:04:01;;;;;;;21.83;17.70;;;;;;;9.82;100.00;99855.59;5090870;27;20046;-71
2024/03/31 00:06:50;;;;;;;21.02;17.63;;;;;;;9.79;100.00;99856.19;5105246;27;20059;-71
2024/03/31 00:09:37;;;;;;;23.67;19.27;;;;;;;9.83;100.00;99835.44;5051442;28;20055;-71
2024/03/31 00:12:24;;;;;;;24.52;19.13;;;;;;;9.82;100.00;99840.06;5092622;28;20044;-70
2024/03/31 00:15:12;;;;;;;23.67;19.48;;;;;;;9.86;100.00;99836.78;5063119;28;20051;-70
2024/03/31 00:17:59;;;;;;;27.10;20.85;;;;;;;9.76;100.00;99835.78;5065871;28;20047;-71
2024/03/31 00:20:46;;;;;;;24.15;19.10;;;;;;;9.65;100.00;99833.47;5053961;28;20044;-70
2024/03/31 00:23:33;;;;;;;23.77;19.48;;;;;;;9.60;100.00;99826.16;5051167;28;20048;-70
2024/03/31 00:26:20;;;;;;;23.38;19.05;;;;;;;9.64;100.00;99819.03;5069351;28;20143;-70
2024/03/31 00:29:07;;;;;;;24.08;20.08;;;;;;;9.72;100.00;99821.13;5068807;28;20040;-70
2024/03/31 00:31:54;;;;;;;23.08;18.45;;;;;;;9.68;100.00;99813.84;5098220;28;20092;-70
2024/03/31 00:34:41;;;;;;;21.90;17.95;;;;;;;9.63;100.00;99811.97;5097876;28;20055;-70
2024/03/31 00:37:28;;;;;;;24.35;17.90;;;;;;;9.54;100.00;99802.81;5098570;28;20052;-71
2024/03/31 00:40:15;;;;;;;22.33;17.38;;;;;;;9.56;100.00;99806.06;5096937;28;20450;-71
2024/03/31 00:43:02;;;;;;;21.15;16.92;;;;;;;9.62;100.00;99813.09;5084998;28;20082;-70
2024/03/31 00:45:49;;;;;;;18.77;14.82;;;;;;;9.60;100.00;99810.63;5083619;28;20553;-70
2024/03/31 00:48:36;;;;;;;20.73;16.00;;;;;;;9.58;100.00;99820.19;5097600;28;20069;-71
2024/03/31 00:51:23;;;;;;;19.40;15.50;;;;;;;9.63;100.00;99822.06;5059011;28;20059;-70
2024/03/31 00:54:10;;;;;;;18.23;14.40;;;;;;;9.65;100.00;99828.81;5063594;28;20078;-71
2024/03/31 00:56:57;;;;;;;17.52;14.18;;;;;;;9.64;100.00;99831.81;5077525;28;20051;-71
2024/03/31 00:59:44;;;;;;;16.35;13.52;;;;;;;9.53;100.00;99826.47;5063188;28;20040;-70
2024/03/31 01:02:31;;;;;;;16.70;13.43;;;;;;;9.45;100.00;99818.91;5089697;28;20052;-70
2024/03/31 01:05:18;;;;;;;14.98;12.57;;;;;;;9.45;100.00;99829.78;5050404;28;20508;-71
2024/03/31 01:08:06;;;;;;;17.50;14.45;;;;;;;9.53;100.00;99831.13;5076901;28;20052;-71
2024/03/31 01:10:54;;;;;;;17.00;13.80;;;;;;;9.53;100.00;99847.44;5065641;28;20048;-72
2024/03/31 01:13:41;;;;;;;17.38;13.32;;;;;;;9.59;100.00;99841.63;5066901;28;20400;-71
2024/03/31 01:16:30;;;;;;;19.17;13.02;;;;;;;9.53;100.00;99839.28;5048116;28;20079;-71
2024/03/31 01:19:17;;;;;;;16.63;13.57;;;;;;;9.47;100.00;99837.69;5051769;28;20051;-72
2024/03/31 01:22:04;;;;;;;14.82;11.93;;;;;;;9.45;100.00;99842.59;5097218;28;20048;-72
2024/03/31 01:24:51;;;;;;;15.40;12.02;;;;;;;9.50;100.00;99842.53;5081996;28;20035;-70
2024/03/31 01:27:38;;;;;;;15.73;12.85;;;;;;;9.59;100.00;99840.81;5069779;28;20157;-70
2024/03/31 01:30:26;;;;;;;15.43;12.18;;;;;;;9.59;100.00;99835.38;5060665;28;20417;-70
2024/03/31 01:33:13;;;;;;;14.55;11.35;;;;;;;9.57;100.00;99832.13;5082030;28;20519;-70
2024/03/31 01:36:01;;;;;;;15.02;11.43;;;;;;;9.58;100.00;99831.06;5060863;28;20052;-71
2024/03/31 01:38:48;;;;;;;14.85;11.50;;;;;;;9.64;100.00;99827.19;5062882;28;20052;-70
2024/03/31 01:41:35;;;;;;;14.57;11.02;;;;;;;9.64;100.00;99826.38;5033766;28;20492;-71
2024/03/31 01:44:22;;;;;;;14.57;11.45;;;;;;;9.67;100.00;99817.63;5062616;28;20047;-71
2024/03/31 01:47:09;;;;;;;15.13;12.00;;;;;;;9.65;100.00;99806.25;5076080;28;20081;-70
2024/03/31 01:49:56;;;;;;;13.90;9.85;;;;;;;9.56;100.00;99811.50;5095425;28;20051;-71
2024/03/31 01:52:43;;;;;;;15.23;11.85;;;;;;;9.57;100.00;99818.53;5094370;28;20035;-72
2024/03/31 01:55:30;;;;;;;13.70;11.45;;;;;;;9.54;100.00;99816.41;5063728;28;20548;-72
2024/03/31 01:58:17;;;;;;;14.55;11.68;;;;;;;9.53;100.00;99814.78;5067040;28;20039;-71
2024/03/31 02:01:04;;;;;;;14.18;11.27;;;;;;;9.56;100.00;99817.75;5083026;28;20384;-70
2024/03/31 02:03:51;;;;;;;14.02;10.77;;;;;;;9.58;100.00;99823.72;5068643;28;20047;-70
2024/03/31 02:06:38;;;;;;;14.65;11.85;;;;;;;9.62;100.00;99825.84;5078692;28;20120;-70
2024/03/31 02:09:25;;;;;;;14.27;11.57;;;;;;;9.58;100.00;99836.50;5052160;28;20052;-71
2024/03/31 02:12:12;;;;;;;14.88;12.07;;;;;;;9.57;100.00;99832.13;5070532;28;20556;-70
2024/03/31 02:15:00;;;;;;;15.38;11.45;;;;;;;9.56;100.00;99835.97;5070320;28;20048;-70
2024/03/31 02:17:47;;;;;;;17.15;12.85;;;;;;;9.59;100.00;99846.28;5084698;28;20047;-70
2024/03/31 02:20:34;;;;;;;15.27;11.85;;;;;;;9.57;100.00;99823.97;5053022;28;20048;-70
2024/03/31 02:23:21;;;;;;;15.38;11.77;;;;;;;9.54;100.00;99828.09;5065514;28;20051;-71
2024/03/31 02:26:08;;;;;;;15.10;12.48;;;;;;;9.54;100.00;99821.84;5053345;28;20048;-70
2024/03/31 02:28:55;;;;;;;15.18;11.93;;;;;;;9.50;100.00;99821.63;5083563;28;20040;-70
2024/03/31 02:31:42;;;;;;;13.50;11.15;;;;;;;9.47;100.00;99827.59;5085794;28;20065;-70
2024/03/31 02:34:29;;;;;;;14.73;11.93;;;;;;;9.48;100.00;99825.72;5086589;28;20047;-71
2024/03/31 02:37:16;;;;;;;16.10;12.38;;;;;;;9.49;100.00;99835.50;5098146;28;20042;-72
2024/03/31 02:40:04;;;;;;;14.70;11.20;;;;;;;9.47;100.00;99826.81;5085361;28;20134;-70
2024/03/31 02:42:53;;;;;;;14.95;12.13;;;;;;;9.48;100.00;99828.44;5072049;28;20047;-70
2024/03/31 02:45:40;;;;;;;15.80;12.55;;;;;;;9.45;100.00;99818.13;5086904;28;20046;-70
2024/03/31 02:48:27;;;;;;;18.40;13.10;;;;;;;9.44;100.00;99816.50;5081903;28;20056;-71
2024/03/31 02:51:14;;;;;;;17.02;12.88;;;;;;;9.40;100.00;99818.97;5057937;28;20510;-70
2024/03/31 02:54:01;;;;;;;16.38;12.73;;;;;;;9.39;100.00;99810.00;5100558;28;20047;-70
2024/03/31 02:56:48;;;;;;;16.48;13.10;;;;;;;9.35;100.00;99808.94;5069456;28;20051;-69
2024/03/31 02:59:36;;;;;;;16.33;12.27;;;;;;;9.38;100.00;99810.31;5068535;28;20054;-70
2024/03/31 03:02:25;;;;;;;15.60;12.77;;;;;;;9.39;100.00;99815.44;5071214;28;20051;-70
2024/03/31 03:05:12;;;;;;;16.27;11.88;;;;;;;9.34;100.00;99796.47;5085423;28;20420;-70
2024/03/31 03:07:59;;;;;;;15.82;12.07;;;;;;;9.30;100.00;99789.97;5094574;28;20040;-70
2024/03/31 03:10:56;;;;;;;14.07;10.43;;;;;;;9.17;100.00;99790.63;5067379;28;20047;-71
2024/03/31 03:13:44;;;;;;;15.60;11.45;;;;;;;9.11;100.00;99781.69;5065379;28;20472;-70
2024/03/31 03:16:32;;;;;;;12.68;10.40;;;;;;;9.05;100.00;99776.59;5079344;28;20044;-71
2024/03/31 03:19:19;;;;;;;15.77;11.57;;;;;;;9.07;100.00;99771.69;5065671;28;20059;-71
2024/03/31 03:22:06;;;;;;;14.38;11.55;;;;;;;9.09;100.00;99772.19;5065235;28;20500;-71
2024/03/31 03:24:54;;;;;;;14.63;11.15;;;;;;;9.13;100.00;99770.53;5065236;28;20488;-70
2024/03/31 03:27:41;;;;;;;16.15;12.00;;;;;;;9.18;100.00;99760.44;5078434;28;20044;-70
2024/03/31 03:30:28;;;;;;;14.45;11.10;;;;;;;9.21;100.00;99764.47;5081449;28;20101;-70
2024/03/31 03:33:15;;;;;;;14.27;11.10;;;;;;;9.17;100.00;99758.00;5065546;28;20052;-70
2024/03/31 03:36:06;;;;;;;11.85;9.02;;;;;;;9.17;100.00;99758.00;5050988;28;20515;-70
2024/03/31 03:38:53;;;;;;;14.73;10.65;;;;;;;9.07;100.00;99737.19;5066446;28;20044;-71
2024/03/31 03:41:45;;;;;;;11.60;8.55;;;;;;;9.04;100.00;99736.91;5045941;28;20039;-71
2024/03/31 03:44:33;;;;;;;12.93;9.82;;;;;;;9.08;100.00;99754.28;5070631;28;20036;-71
2024/03/31 03:47:20;;;;;;;13.48;10.07;;;;;;;9.09;100.00;99783.91;5066184;28;20048;-70
2024/03/31 03:50:07;;;;;;;12.68;10.05;;;;;;;9.15;100.00;99787.38;5052307;28;20412;-69
2024/03/31 03:52:54;;;;;;;13.98;10.95;;;;;;;9.11;100.00;99787.13;5077398;28;20056;-71
2024/03/31 03:55:41;;;;;;;14.18;10.40;;;;;;;9.11;100.00;99786.31;5057328;28;20506;-70
2024/03/31 03:58:28;;;;;;;12.68;9.40;;;;;;;9.11;100.00;99786.31;5063174;28;20081;-70
2024/03/31 04:01:15;;;;;;;11.95;9.15;;;;;;;9.06;100.00;99789.88;5072897;28;20047;-70
2024/03/31 04:04:03;;;;;;;13.07;9.95;;;;;;;9.12;100.00;99786.03;5063166;28;20055;-70
2024/03/31 04:06:50;;;;;;;14.13;9.38;;;;;;;9.15;100.00;99781.94;5106274;28;20052;-70
2024/03/31 04:09:37;;;;;;;14.75;9.88;;;;;;;9.13;100.00;99778.69;5093445;28;20059;-70
2024/03/31 04:12:24;;;;;;;12.82;9.93;;;;;;;9.14;100.00;99770.28;5097045;28;20040;-70
2024/03/31 04:15:11;;;;;;;12.23;9.02;;;;;;;9.13;100.00;99774.06;5109689;28;20043;-69
2024/03/31 04:17:58;;;;;;;12.63;9.27;;;;;;;9.08;100.00;99763.25;5083538;28;20500;-70
2024/03/31 04:20:46;;;;;;;10.73;8.10;;;;;;;9.03;100.00;99757.03;5077087;28;20431;-70
2024/03/31 04:23:33;;;;;;;11.27;8.50;;;;;;;9.04;100.00;99755.94;5073275;28;20048;-70
2024/03/31 04:26:25;;;;;;;12.23;8.52;;;;;;;9.06;100.00;99740.16;5079947;28;20051;-70
2024/03/31 04:29:13;;;;;;;10.98;8.07;;;;;;;9.12;100.00;99745.28;5097544;28;20496;-71
2024/03/31 04:32:00;;;;;;;10.82;8.18;;;;;;;9.16;100.00;99750.94;5097217;28;20050;-69
2024/03/31 04:34:47;;;;;;;11.52;8.65;;;;;;;9.15;100.00;99741.19;5094744;28;20130;-70
2024/03/31 04:37:35;;;;;;;10.20;8.07;;;;;;;9.10;100.00;99741.22;5073988;28;20052;-70
2024/03/31 04:40:22;;;;;;;12.30;7.93;;;;;;;8.99;100.00;99740.47;5077073;28;20412;-71
2024/03/31 04:43:10;;;;;;;11.68;8.60;;;;;;;8.90;100.00;99720.47;5050528;28;20048;-69
2024/03/31 04:46:16;;;;;;;10.73;7.93;;;;;;;8.85;100.00;99718.63;5069692;28;20445;-69
2024/03/31 04:49:07;;;;;;;9.27;6.90;;;;;;;8.92;100.00;99735.41;5083985;28;20096;-69
2024/03/31 04:51:55;;;;;;;9.43;6.75;;;;;;;9.01;100.00;99734.78;5081547;28;20120;-70
2024/03/31 04:54:45;;;;;;;9.05;6.93;;;;;;;9.07;100.00;99728.22;5070028;28;20047;-69
2024/03/31 04:57:32;;;;;;;12.02;8.55;;;;;;;9.06;100.00;99718.44;5054873;28;20039;-73
2024/03/31 05:00:20;;;;;;;10.73;8.15;;;;;;;8.99;100.00;99717.94;5076180;28;20055;-70
2024/03/31 05:03:08;;;;;;;10.57;7.30;;;;;;;8.85;100.00;99720.50;5080608;28;20044;-71
2024/03/31 05:05:56;;;;;;;11.40;7.68;;;;;;;8.80;100.00;99710.47;5082411;28;20096;-70
2024/03/31 05:08:43;;;;;;;9.80;7.45;;;;;;;8.81;100.00;99712.13;5083197;28;20043;-70
2024/03/31 05:11:30;;;;;;;11.73;8.80;;;;;;;8.86;100.00;99698.50;5065020;28;20052;-72
2024/03/31 05:14:17;;;;;;;9.63;6.60;;;;;;;8.78;100.00;99674.66;5042030;28;20090;-70
2024/03/31 05:17:04;;;;;;;11.02;7.60;;;;;;;8.76;100.00;99674.13;5070341;28;20039;-70
2024/03/31 05:19:52;;;;;;;11.07;8.02;;;;;;;8.76;100.00;99679.56;5083441;28;20044;-70
2024/03/31 05:22:39;;;;;;;10.40;7.72;;;;;;;8.78;100.00;99677.38;5064175;28;20457;-70
2024/03/31 05:25:26;;;;;;;12.57;8.90;;;;;;;8.88;100.00;99693.59;5075134;28;20051;-70
2024/03/31 05:28:14;;;;;;;11.55;8.70;;;;;;;8.96;100.00;99703.03;5069772;28;20044;-71
2024/03/31 05:31:02;;;;;;;12.25;9.10;;;;;;;8.98;100.00;99710.91;5055003;28;20051;-70
2024/03/31 05:33:52;;;;;;;12.68;9.80;;;;;;;8.97;100.00;99710.06;5068502;28;20051;-70
2024/03/31 05:36:39;;;;;;;12.63;10.13;;;;;;;8.93;100.00;99712.56;5078714;28;20101;-69
2024/03/31 05:39:26;;;;;;;14.30;9.48;;;;;;;8.90;100.00;99710.41;5080997;28;20442;-72
2024/03/31 05:42:13;;;;;;;13.00;9.95;;;;;;;8.91;100.00;99701.16;5049351;28;20515;-72
2024/03/31 05:45:00;;;;;;;13.88;9.82;;;;;;;8.94;100.00;99687.00;5048509;28;20040;-70
2024/03/31 05:47:47;;;;;;;15.90;11.13;;;;;;;8.99;100.00;99697.00;5054286;28;20059;-70
2024/03/31 05:50:34;;;;;;;16.33;12.10;;;;;;;9.01;100.00;99689.41;5016116;28;20048;-70
2024/03/31 05:53:22;;;;;;;15.05;11.27;;;;;;;8.98;100.00;99681.03;5043050;28;20079;-70
2024/03/31 05:56:10;;;;;;;12.77;9.48;;;;;;;8.99;100.00;99693.50;5065146;28;20036;-70
2024/03/31 05:58:57;;;;;;;18.23;13.40;;;;;;;9.02;100.00;99698.34;5070797;28;20043;-71
2024/03/31 06:01:44;;;;;;;17.23;13.18;;;;;;;8.99;100.00;99696.22;5065638;28;20389;-70
2024/03/31 06:04:33;;;;;;;19.33;14.95;;;;;;;8.95;100.00;99702.22;5049046;28;20040;-71
2024/03/31 06:07:21;;;;;;;18.95;14.57;;;;;;;8.94;100.00;99697.06;5064931;28;20507;-70
2024/03/31 06:10:09;;;;;;;19.20;14.38;;;;;;;8.91;100.00;99695.72;5068234;28;20460;-69
2024/03/31 06:12:56;;;;;;;19.08;14.60;;;;;;;8.92;100.00;99683.78;5072805;28;20114;-70
2024/03/31 06:15:44;;;;;;;18.42;14.07;;;;;;;8.93;100.00;99671.81;5082876;28;20466;-70
2024/03/31 06:18:31;;;;;;;20.08;15.65;;;;;;;8.97;100.00;99672.03;5080337;28;20128;-70
2024/03/31 06:21:18;;;;;;;20.33;15.85;;;;;;;9.02;100.00;99671.19;5062080;28;20044;-70
2024/03/31 06:24:06;;;;;;;20.05;15.80;;;;;;;9.00;100.00;99671.47;5063177;28;20044;-70
2024/03/31 06:26:55;;;;;;;20.67;15.18;;;;;;;9.05;100.00;99676.06;5073668;28;20128;-71
2024/03/31 06:29:42;;;;;;;19.88;15.60;;;;;;;9.08;100.00;99681.72;5081367;28;20531;-71
2024/03/31 06:32:29;;;;;;;21.00;16.33;;;;;;;9.17;100.00;99676.50;5075209;28;20044;-70
2024/03/31 06:35:17;;;;;;;20.08;15.80;;;;;;;9.15;100.00;99684.09;5065052;28;20048;-69
2024/03/31 06:38:04;;;;;;;22.98;16.55;;;;;;;9.09;100.00;99677.09;5046394;28;20054;-69
2024/03/31 06:40:51;;;;;;;19.75;15.57;;;;;;;9.02;100.00;99679.31;5061205;28;20063;-69
2024/03/31 06:43:39;;;;;;;22.77;17.33;;;;;;;9.02;100.00;99668.47;5076365;28;20051;-70
2024/03/31 06:46:26;;;;;;;21.00;16.77;;;;;;;9.03;100.00;99675.53;5046763;28;20051;-70
2024/03/31 06:49:13;;;;;;;20.45;15.65;;;;;;;9.07;100.00;99682.84;5081478;28;20051;-70
2024/03/31 06:52:01;;;;;;;23.02;16.98;;;;;;;9.13;100.00;99675.44;5079644;28;20047;-69
2024/03/31 06:54:48;;;;;;;24.45;17.33;;;;;;;9.09;100.00;99666.22;5068085;28;20043;-70
2024/03/31 06:57:35;;;;;;;22.08;16.35;;;;;;;9.08;100.00;99670.03;5081405;28;20044;-70
2024/03/31 07:00:22;;;;;;;21.33;15.95;;;;;;;9.06;100.00;99670.31;5076505;28;20071;-69
2024/03/31 07:03:09;;;;;;;21.98;15.68;;;;;;;9.06;100.00;99667.59;5065515;28;20120;-70
2024/03/31 07:05:56;;;;;;;23.77;18.38;;;;;;;9.09;100.00;99658.91;5062634;28;20117;-68
2024/03/31 07:08:46;;;;;;;22.75;18.33;;;;;;;9.10;100.00;99660.50;5066747;28;20133;-68
2024/03/31 07:11:34;;;;;;;22.13;18.02;;;;;;;9.08;100.00;99664.63;5059293;28;20055;-68
2024/03/31 07:14:21;;;;;;;23.52;18.13;;;;;;;9.08;100.00;99662.69;5074710;28;20123;-71
2024/03/31 07:17:11;;;;;;;23.25;18.67;;;;;;;9.09;100.00;99668.94;5074866;28;20050;-68
2024/03/31 07:19:58;;;;;;;25.50;19.00;;;;;;;9.11;100.00;99667.56;5072398;28;20035;-71
2024/03/31 07:22:46;;;;;;;20.92;16.33;;;;;;;9.16;100.00;99672.13;5085333;28;20074;-69
2024/03/31 07:25:35;;;;;;;24.77;16.77;;;;;;;9.23;100.00;99663.66;5098148;28;20411;-69
2024/03/31 07:28:22;;;;;;;21.85;16.25;;;;;;;9.27;100.00;99659.28;5051366;28;20079;-69
2024/03/31 07:31:09;;;;;;;22.63;16.48;;;;;;;9.27;100.00;99665.50;5064705;28;20055;-70
2024/03/31 07:33:57;;;;;;;22.65;15.95;;;;;;;9.28;100.00;99656.25;5060622;28;20407;-69
2024/03/31 07:36:45;;;;;;;24.83;17.30;;;;;;;9.34;100.00;99665.16;5084366;28;20071;-69
2024/03/31 07:39:35;;;;;;;27.02;15.20;;;;;;;9.34;100.00;99655.09;5070757;28;20446;-70
2024/03/31 07:42:22;;;;;;;26.95;15.95;;;;;;;9.38;100.00;99661.59;5084376;28;20534;-69
2024/03/31 07:45:09;;;;;;;22.70;15.25;;;;;;;9.41;100.00;99646.59;5070434;28;20052;-69
2024/03/31 07:47:56;;;;;;;21.08;15.50;;;;;;;9.44;100.00;99645.22;5078030;28;20040;-69
2024/03/31 07:50:44;;;;;;;23.70;15.70;;;;;;;9.50;100.00;99644.03;5050415;28;20083;-70
2024/03/31 07:53:31;;;;;;;22.38;15.23;;;;;;;9.57;100.00;99652.66;5048890;28;20040;-69
2024/03/31 07:56:19;;;;;;;22.52;15.07;;;;;;;9.63;100.00;99656.94;5078958;28;20079;-70
2024/03/31 07:59:06;;;;;;;22.23;14.23;;;;;;;9.67;100.00;99646.28;5080328;28;20104;-69
2024/03/31 08:01:54;;;;;;;23.25;14.73;;;;;;;9.69;100.00;99647.66;5053013;28;20048;-70
2024/03/31 08:04:41;;;;;;;22.95;14.65;;;;;;;9.70;100.00;99646.53;5050660;28;20078;-69
2024/03/31 08:07:28;;;;;;;24.70;15.00;;;;;;;9.72;100.00;99649.78;5064034;28;20484;-69
2024/03/31 08:10:15;;;;;;;26.63;14.73;;;;;;;9.76;100.00;99642.63;5075959;28;20064;-69
2024/03/31 08:13:03;;;;;;;25.17;14.40;;;;;;;9.76;100.00;99645.34;5078040;28;20501;-68
2024/03/31 08:15:50;;;;;;;23.08;14.00;;;;;;;9.77;100.00;99651.63;5064940;28;20048;-69
2024/03/31 08:18:42;;;;;;;24.88;14.32;;;;;;;9.81;100.00;99636.31;5050594;28;20077;-70
2024/03/31 08:21:29;;;;;;;25.02;13.85;;;;;;;9.87;100.00;99637.88;5056109;28;20165;-69
2024/03/31 08:24:16;;;;;;;22.85;13.32;;;;;;;9.96;100.00;99635.34;5063351;28;20044;-69
2024/03/31 08:27:03;;;;;;;18.88;12.65;;;;;;;10.02;100.00;99645.03;5078386;28;20052;-69
2024/03/31 08:29:50;;;;;;;21.40;12.35;;;;;;;10.07;100.00;99639.50;5063840;28;20111;-70
2024/03/31 08:32:37;;;;;;;23.98;12.35;;;;;;;10.13;100.00;99643.78;5077510;28;20056;-70
2024/03/31 08:35:24;;;;;;;21.42;11.77;;;;;;;10.17;100.00;99636.66;5036974;28;20064;-70
2024/03/31 08:38:11;;;;;;;17.98;11.48;;;;;;;10.22;100.00;99633.88;5077901;28;20548;-70
2024/03/31 08:41:39;;;;;;;20.48;10.48;;;;;;;10.26;100.00;99631.34;5052178;28;20051;-69
2024/03/31 08:44:26;;;;;;;20.15;10.90;;;;;;;10.30;100.00;99639.78;5062748;28;20079;-69
2024/03/31 08:47:18;;;;;;;21.52;10.63;;;;;;;10.33;100.00;99636.47;5050701;28;20052;-69
2024/03/31 08:50:06;;;;;;;16.90;9.75;;;;;;;10.37;100.00;99630.13;5065074;28;20044;-70
2024/03/31 08:52:53;;;;;;;16.60;9.68;;;;;;;10.45;100.00;99628.63;5065852;28;20186;-70
2024/03/31 08:55:40;;;;;;;21.33;9.90;;;;;;;10.53;100.00;99624.44;5071482;28;20445;-70
2024/03/31 08:58:27;;;;;;;20.27;9.02;;;;;;;10.58;100.00;99627.91;5049774;28;20454;-69
2024/03/31 09:01:14;;;;;;;18.67;8.80;;;;;;;10.63;100.00;99624.25;5065602;28;20500;-70
2024/03/31 09:04:02;;;;;;;16.65;8.75;;;;;;;10.68;100.00;99615.19;5051097;28;20515;-69
2024/03/31 09:06:49;;;;;;;17.30;8.02;;;;;;;10.74;100.00;99612.09;5067100;28;20471;-68
2024/03/31 09:09:40;;;;;;;15.68;8.40;;;;;;;10.77;100.00;99607.97;5052739;28;20064;-69
2024/03/31 09:12:27;;;;;;;16.13;8.05;;;;;;;10.79;100.00;99611.19;5066776;28;20045;-69
2024/03/31 09:15:15;;;;;;;17.90;7.80;;;;;;;10.81;100.00;99606.25;5051090;28;20055;-69
2024/03/31 09:18:03;;;;;;;14.38;7.35;;;;;;;10.89;100.00;99613.72;5049743;28;20123;-69
2024/03/31 09:20:50;;;;;;;16.58;7.72;;;;;;;10.97;100.00;99606.81;5063435;28;20129;-69
2024/03/31 09:23:38;;;;;;;18.45;7.43;;;;;;;11.04;100.00;99597.13;5076643;28;20420;-69
2024/03/31 09:26:26;;;;;;;14.65;7.47;;;;;;;11.11;100.00;99596.69;5049417;28;20039;-69
2024/03/31 09:29:13;;;;;;;16.92;6.55;;;;;;;11.19;100.00;99592.50;5049662;28;20052;-69
2024/03/31 09:32:14;;;;;;;12.18;5.63;;;;;;;11.26;100.00;99585.53;5077659;28;20047;-69
2024/03/31 09:35:02;;;;;;;20.27;7.25;;;;;;;11.29;100.00;99587.63;5047447;28;20055;-70
2024/03/31 09:37:50;;;;;;;18.02;5.68;;;;;;;11.38;100.00;99585.00;5077246;28;20052;-70
2024/03/31 09:40:38;;;;;;;16.27;5.72;;;;;;;11.48;100.00;99578.53;5063886;28;20044;-71
2024/03/31 09:43:26;;;;;;;12.20;5.40;;;;;;;11.49;100.00;99580.94;5079133;28;20089;-69
2024/03/31 09:46:17;;;;;;;15.68;5.65;;;;;;;11.50;100.00;99582.56;5082975;28;20400;-71
2024/03/31 09:49:06;;;;;;;16.63;5.65;;;;;;;11.60;100.00;99578.81;5097533;28;20048;-69
2024/03/31 09:51:55;;;;;;;13.63;4.85;;;;;;;11.66;100.00;99584.97;5096848;28;20044;-69
2024/03/31 09:54:44;;;;;;;17.00;5.47;;;;;;;11.64;100.00;99587.19;5086612;28;20134;-70
2024/03/31 09:57:36;;;;;;;13.75;4.90;;;;;;;11.69;100.00;99581.66;5060925;28;20040;-70
2024/03/31 10:00:23;;;;;;;18.65;4.82;;;;;;;11.76;100.00;99595.69;5064876;28;20055;-70
2024/03/31 10:03:30;;;;;;;22.35;5.40;;;;;;;11.76;100.00;99595.69;5063980;28;20097;-70
2024/03/31 10:06:17;;;;;;;18.83;6.05;;;;;;;11.76;100.00;99579.31;5067090;28;20127;-69
2024/03/31 10:09:05;;;;;;;14.27;4.43;;;;;;;11.77;100.00;99586.38;5069283;28;20112;-69
2024/03/31 10:11:53;;;;;;;14.43;4.28;;;;;;;11.79;100.00;99591.53;5068930;28;20411;-69
2024/03/31 10:14:42;;;;;;;19.33;5.55;;;;;;;11.79;100.00;99597.00;5067793;28;20055;-69
2024/03/31 10:17:29;;;;;;;16.50;4.88;;;;;;;11.82;100.00;99590.91;5062559;28;20507;-69
2024/03/31 10:20:18;;;;;;;15.23;4.18;;;;;;;11.88;100.00;99595.16;5049385;28;20480;-69
2024/03/31 10:23:06;;;;;;;23.15;5.00;;;;;;;11.94;100.00;99592.03;5049098;28;20500;-69
2024/03/31 10:25:53;;;;;;;17.95;5.38;;;;;;;11.99;100.00;99588.38;5061977;28;20048;-70
2024/03/31 10:28:44;;;;;;;19.92;4.32;;;;;;;12.01;100.00;99588.06;5056119;28;20048;-73
2024/03/31 10:31:31;;;;;;;14.18;4.00;;;;;;;12.01;100.00;99585.34;5063387;28;20089;-69
2024/03/31 10:34:18;;;;;;;14.45;4.25;;;;;;;12.07;100.00;99590.34;5075482;28;20059;-69
2024/03/31 10:37:07;;;;;;;16.63;4.07;;;;;;;12.17;100.00;99583.88;5065259;28;20055;-70
2024/03/31 10:39:54;;;;;;;18.23;4.20;;;;;;;12.28;100.00;99585.25;5080459;28;20526;-69
2024/03/31 10:42:44;;;;;;;18.70;4.95;;;;;;;12.40;100.00;99573.75;5079755;28;20094;-70
2024/03/31 10:45:32;;;;;;;18.42;4.10;;;;;;;12.52;100.00;99567.72;5065576;28;20488;-70
2024/03/31 10:48:19;;;;;;;22.80;4.55;;;;;;;12.60;100.00;99564.22;5039279;28;20048;-74
2024/03/31 10:51:13;;;;;;;15.38;4.43;;;;;;;12.60;100.00;99564.22;5075637;28;20040;-69
2024/03/31 10:54:46;;;;;;;17.38;3.78;;;;;;;12.61;100.00;99557.66;5074555;28;20056;-70
2024/03/31 10:57:38;;;;;;;24.35;4.60;;;;;;;12.61;100.00;99560.41;5066420;28;20067;-70
2024/03/31 11:00:25;;;;;;;20.20;4.53;;;;;;;12.64;100.00;99548.84;5063008;28;20518;-71
2024/03/31 11:03:12;;;;;;;24.40;4.28;;;;;;;12.84;100.00;99546.69;5067012;28;20089;-71
2024/03/31 11:06:03;;;;;;;22.02;3.65;;;;;;;12.95;100.00;99534.34;5065716;28;20051;-69
2024/03/31 11:08:50;;;;;;;19.45;4.07;;;;;;;13.07;100.00;99534.56;5084010;28;20044;-68
2024/03/31 11:11:38;;;;;;;21.00;3.90;;;;;;;13.21;100.00;99529.00;5083382;28;20084;-71
2024/03/31 11:14:26;;;;;;;21.75;4.18;;;;;;;13.25;100.00;99526.41;5096773;28;20506;-71
2024/03/31 11:17:13;;;;;;;20.08;4.75;;;;;;;13.27;100.00;99529.63;5076447;28;20403;-69
2024/03/31 11:20:02;;;;;;;11.30;3.53;;;;;;;13.23;100.00;99524.00;5055295;28;20497;-71
2024/03/31 11:22:49;;;;;;;19.10;4.00;;;;;;;13.14;100.00;99523.97;5075213;28;20052;-70
2024/03/31 11:25:37;;;;;;;16.30;2.92;;;;;;;13.08;100.00;99519.75;5100111;28;20046;-71
2024/03/31 11:28:24;;;;;;;14.65;3.15;;;;;;;13.00;100.00;99528.75;5071957;28;20078;-71
2024/03/31 11:31:11;;;;;;;14.52;3.10;;;;;;;12.96;100.00;99517.66;5084995;28;20043;-70
2024/03/31 11:33:58;;;;;;;13.20;2.90;;;;;;;13.01;100.00;99524.88;5082769;28;20039;-69
2024/03/31 11:36:45;;;;;;;15.48;3.47;;;;;;;13.04;100.00;99512.53;5071976;28;20047;-70
2024/03/31 11:39:36;;;;;;;17.98;3.30;;;;;;;13.14;100.00;99509.50;5086713;28;20496;-69
2024/03/31 11:42:25;;;;;;;10.43;2.60;;;;;;;13.24;100.00;99505.66;5097482;28;20500;-72
2024/03/31 11:45:12;;;;;;;15.50;3.55;;;;;;;13.22;100.00;99511.44;5084680;28;20075;-72
2024/03/31 11:47:59;;;;;;;15.93;3.38;;;;;;;13.23;100.00;99518.53;5097732;28;20059;-68
2024/03/31 11:50:46;;;;;;;15.88;3.15;;;;;;;13.31;100.00;99508.75;5070618;28;20047;-68
2024/03/31 11:53:33;;;;;;;17.02;3.22;;;;;;;13.30;100.00;99509.88;5079774;28;20040;-68
2024/03/31 11:56:20;;;;;;;13.50;3.17;;;;;;;13.33;100.00;99509.25;5098669;28;20054;-67
2024/03/31 11:59:18;;;;;;;14.82;3.00;;;;;;;13.28;100.00;99507.47;5083275;28;20096;-66
2024/03/31 12:02:05;;;;;;;16.27;2.90;;;;;;;13.25;100.00;99501.78;5042521;28;20043;-71
2024/03/31 12:04:52;;;;;;;16.05;3.03;;;;;;;13.22;100.00;99495.03;5071486;28;20070;-71
2024/03/31 12:07:40;;;;;;;16.63;3.42;;;;;;;13.22;100.00;99500.50;5079882;28;20508;-71
2024/03/31 12:10:27;;;;;;;14.65;3.65;;;;;;;13.19;100.00;99491.00;5090691;28;20471;-71
2024/03/31 12:13:15;;;;;;;13.57;3.10;;;;;;;13.16;100.00;99508.06;5094159;28;20079;-70
2024/03/31 12:16:04;;;;;;;21.40;3.95;;;;;;;13.14;100.00;99523.97;5116353;28;20047;-70
2024/03/31 12:18:51;;;;;;;15.43;3.15;;;;;;;13.07;100.00;99534.56;5097225;28;20054;-70
2024/03/31 12:21:39;;;;;;;16.48;3.67;;;;;;;12.95;100.00;99526.16;5080863;28;20051;-71
2024/03/31 12:24:26;;;;;;;17.10;3.50;;;;;;;12.86;100.00;99519.84;5105013;28;20032;-71
2024/03/31 12:27:13;;;;;;;21.15;3.97;;;;;;;12.80;100.00;99508.25;5100933;28;20040;-70
2024/03/31 12:30:00;;;;;;;17.88;3.50;;;;;;;12.73;100.00;99503.22;5053086;28;20048;-72
2024/03/31 12:32:48;;;;;;;15.30;3.13;;;;;;;12.72;100.00;99493.44;5055228;28;20048;-71
2024/03/31 12:35:35;;;;;;;10.90;2.53;;;;;;;12.71;100.00;99489.06;5083137;28;20051;-70
2024/03/31 12:38:22;;;;;;;12.15;3.13;;;;;;;12.72;100.00;99479.78;5050742;28;20040;-71
2024/03/31 12:41:10;;;;;;;8.70;2.75;;;;;;;12.72;100.00;99474.31;5092342;28;20051;-70
2024/03/31 12:44:05;;;;;;;9.95;2.90;;;;;;;12.76;100.00;99474.47;5078144;28;20161;-70
2024/03/31 12:46:52;;;;;;;13.32;3.30;;;;;;;12.79;100.00;99468.34;5036297;28;20054;-72
2024/03/31 12:49:39;;;;;;;13.85;2.97;;;;;;;12.80;100.00;99459.06;5079208;28;20044;-71
2024/03/31 12:52:30;;;;;;;13.20;3.25;;;;;;;12.83;100.00;99460.34;5051705;28;20044;-72
2024/03/31 12:55:19;;;;;;;12.85;3.03;;;;;;;12.84;100.00;99453.75;5081161;28;20039;-70